createdAt,value
2023-03-28T00:00:31.415Z,96296.78
2023-03-28T00:02:58.153Z,96300.91
2023-03-28T00:05:24.733Z,96291.34
2023-03-28T00:07:51.597Z,96290.34
2023-03-28T00:10:18.273Z,96290.34
2023-03-28T00:12:44.787Z,96302.06
2023-03-28T00:15:11.645Z,96299.53
2023-03-28T00:17:38.143Z,96298.63
2023-03-28T00:20:10.463Z,96293.53
2023-03-28T00:22:38.178Z,96294.44
2023-03-28T00:25:06.747Z,96293.72
2023-03-28T00:27:33.633Z,96301.25
2023-03-28T00:30:00.510Z,96299.44
2023-03-28T00:32:26.977Z,96294.16
2023-03-28T00:34:53.422Z,96291.44
2023-03-28T00:37:21.128Z,96297.25
2023-03-28T00:39:51.208Z,96301.25
2023-03-28T00:42:18.313Z,96301.19
2023-03-28T00:44:47.996Z,96304.34
2023-03-28T00:47:28.262Z,96304.16
2023-03-28T00:49:59.092Z,96305.53
2023-03-28T00:52:25.757Z,96311.72
2023-03-28T00:54:52.257Z,96311.16
2023-03-28T00:57:18.851Z,96321.81
2023-03-28T00:59:45.890Z,96310.34
2023-03-28T01:02:12.418Z,96315.72
2023-03-28T01:04:43.036Z,96315.81
2023-03-28T01:07:09.494Z,96312.44
2023-03-28T01:09:35.973Z,96318.78
2023-03-28T01:12:02.458Z,96312.97
2023-03-28T01:14:29.211Z,96313.78
2023-03-28T01:16:57.771Z,96318.06
2023-03-28T01:19:43.062Z,96332.31
2023-03-28T01:22:21.580Z,96327.44
2023-03-28T01:25:03.391Z,96325.81
2023-03-28T01:27:53.365Z,96328.41
2023-03-28T01:30:32.208Z,96327.69
2023-03-28T01:33:04.775Z,96326.78
2023-03-28T01:35:37.514Z,96324.34
2023-03-28T01:38:06.924Z,96334.69
2023-03-28T01:40:33.383Z,96331.59
2023-03-28T01:43:06.011Z,96322.41
2023-03-28T01:45:32.481Z,96329.41
2023-03-28T01:48:06.817Z,96326.88
2023-03-28T01:50:42.021Z,96330.47
2023-03-28T01:53:20.620Z,96328.84
2023-03-28T01:55:48.693Z,96327.94
2023-03-28T01:58:35.638Z,96322.94
2023-03-28T02:01:05.496Z,96328.91
2023-03-28T02:03:32.315Z,96322.50
2023-03-28T02:05:58.981Z,96330.03
2023-03-28T02:08:26.589Z,96324.78
2023-03-28T02:10:53.237Z,96325.50
2023-03-28T02:13:21.297Z,96336.34
2023-03-28T02:15:51.945Z,96333.69
2023-03-28T02:18:20.590Z,96336.25
2023-03-28T02:20:49.628Z,96322.69
2023-03-28T02:23:17.868Z,96324.50
2023-03-28T02:25:44.288Z,96327.94
2023-03-28T02:28:10.760Z,96337.41
2023-03-28T02:30:37.266Z,96333.25
2023-03-28T02:33:04.611Z,96334.16
2023-03-28T02:35:46.032Z,96335.78
2023-03-28T02:38:18.099Z,96339.16
2023-03-28T02:40:47.654Z,96334.06
2023-03-28T02:43:14.271Z,96333.25
2023-03-28T02:45:40.823Z,96339.25
2023-03-28T02:48:30.182Z,96341.22
2023-03-28T02:51:09.819Z,96348.09
2023-03-28T02:53:54.614Z,96349.22
2023-03-28T02:56:22.412Z,96347.56
2023-03-28T02:58:50.790Z,96347.22
2023-03-28T03:01:18.075Z,96337.56
2023-03-28T03:03:44.615Z,96347.22
2023-03-28T03:06:12.637Z,96344.13
2023-03-28T03:08:39.173Z,96340.19
2023-03-28T03:11:05.916Z,96340.25
2023-03-28T03:13:32.366Z,96349.16
2023-03-28T03:15:58.963Z,96346.78
2023-03-28T03:18:26.468Z,96348.78
2023-03-28T03:20:53.168Z,96338.75
2023-03-28T03:23:19.616Z,96335.75
2023-03-28T03:25:46.088Z,96335.94
2023-03-28T03:28:13.238Z,96334.53
2023-03-28T03:30:39.694Z,96348.22
2023-03-28T03:33:06.264Z,96329.69
2023-03-28T03:35:35.848Z,96329.03
2023-03-28T03:38:02.811Z,96325.88
2023-03-28T03:40:29.280Z,96329.31
2023-03-28T03:42:55.772Z,96325.13
2023-03-28T03:45:22.688Z,96324.28
2023-03-28T03:47:49.250Z,96324.28
2023-03-28T03:50:15.936Z,96328.47
2023-03-28T03:52:42.461Z,96320.69
2023-03-28T03:55:09.202Z,96324.88
2023-03-28T03:57:35.963Z,96314.34
2023-03-28T04:00:09.059Z,96320.09
2023-03-28T04:02:35.597Z,96323.13
2023-03-28T04:05:02.187Z,96314.41
2023-03-28T04:07:28.712Z,96315.72
2023-03-28T04:09:55.298Z,96321.34
2023-03-28T04:12:21.875Z,96316.75
2023-03-28T04:14:48.315Z,96322.94
2023-03-28T04:17:16.195Z,96327.94
2023-03-28T04:19:43.866Z,96324.47
2023-03-28T04:22:12.798Z,96329.31
2023-03-28T04:24:41.784Z,96335.03
2023-03-28T04:27:09.723Z,96339.88
2023-03-28T04:29:37.080Z,96333.69
2023-03-28T04:32:05.653Z,96332.63
2023-03-28T04:34:33.960Z,96335.97
2023-03-28T04:37:01.925Z,96341.53
2023-03-28T04:39:32.745Z,96337.25
2023-03-28T04:42:02.323Z,96336.06
2023-03-28T04:44:29.525Z,96336.00
2023-03-28T04:46:56.567Z,96345.44
2023-03-28T04:49:23.605Z,96344.63
2023-03-28T04:51:50.837Z,96345.19
2023-03-28T04:54:17.732Z,96344.47
2023-03-28T04:56:50.456Z,96346.09
2023-03-28T04:59:17.396Z,96358.28
2023-03-28T05:01:49.347Z,96356.66
2023-03-28T05:04:19.341Z,96357.38
2023-03-28T05:06:46.378Z,96347.00
2023-03-28T05:09:12.881Z,96360.00
2023-03-28T05:11:39.627Z,96358.75
2023-03-28T05:14:06.406Z,96353.38
2023-03-28T05:16:32.949Z,96347.84
2023-03-28T05:18:59.498Z,96343.25
2023-03-28T05:21:25.975Z,96346.44
2023-03-28T05:23:52.649Z,96343.25
2023-03-28T05:26:19.308Z,96343.03
2023-03-28T05:28:46.359Z,96351.22
2023-03-28T05:31:12.978Z,96347.50
2023-03-28T05:33:39.505Z,96351.47
2023-03-28T05:36:06.132Z,96342.28
2023-03-28T05:38:33.698Z,96348.75
2023-03-28T05:41:00.424Z,96352.44
2023-03-28T05:43:27.342Z,96357.03
2023-03-28T05:45:53.920Z,96361.97
2023-03-28T05:48:20.362Z,96371.91
2023-03-28T05:50:47.932Z,96368.09
2023-03-28T05:53:14.420Z,96364.72
2023-03-28T05:55:41.269Z,96329.31
2023-03-28T05:58:07.866Z,96342.22
2023-03-28T06:00:34.626Z,96340.44
2023-03-28T06:03:01.295Z,96354.59
2023-03-28T06:05:27.813Z,96109.97
2023-03-28T06:07:54.273Z,96355.78
2023-03-28T06:10:21.156Z,96362.84
2023-03-28T06:12:47.584Z,96375.22
2023-03-28T06:15:14.065Z,96377.31
2023-03-28T06:17:40.615Z,96382.22
2023-03-28T06:20:09.993Z,96391.75
2023-03-28T06:22:38.709Z,96391.47
2023-03-28T06:25:05.819Z,96392.84
2023-03-28T06:27:32.533Z,96411.16
2023-03-28T06:30:00.129Z,96416.00
2023-03-28T06:32:27.133Z,96411.03
2023-03-28T06:34:53.597Z,96416.53
2023-03-28T06:37:20.186Z,96417.16
2023-03-28T06:39:46.770Z,96420.50
2023-03-28T06:42:13.229Z,96420.63
2023-03-28T06:44:39.643Z,96425.91
2023-03-28T06:47:06.121Z,96433.25
2023-03-28T06:49:32.559Z,96434.53
2023-03-28T06:51:59.020Z,96437.56
2023-03-28T06:54:25.519Z,96439.91
2023-03-28T06:56:52.082Z,96447.13
2023-03-28T06:59:18.593Z,96453.97
2023-03-28T07:01:45.089Z,96460.81
2023-03-28T07:04:11.720Z,96460.06
2023-03-28T07:06:38.563Z,96459.44
2023-03-28T07:09:06.343Z,96459.78
2023-03-28T07:11:33.537Z,96470.84
2023-03-28T07:13:59.997Z,96468.94
2023-03-28T07:16:26.477Z,96474.81
2023-03-28T07:18:52.958Z,96476.94
2023-03-28T07:21:19.668Z,96476.16
2023-03-28T07:23:46.376Z,96481.78
2023-03-28T07:26:13.325Z,96498.22
2023-03-28T07:28:39.839Z,96500.78
2023-03-28T07:31:06.457Z,96484.44
2023-03-28T07:33:37.277Z,96504.50
2023-03-28T07:36:14.989Z,96502.81
2023-03-28T07:38:42.075Z,96506.81
2023-03-28T07:41:08.760Z,96503.94
2023-03-28T07:43:35.543Z,96507.16
2023-03-28T07:46:02.665Z,96519.38
2023-03-28T07:48:29.673Z,96516.25
2023-03-28T07:50:56.164Z,96523.34
2023-03-28T07:53:22.615Z,96516.94
2023-03-28T07:55:55.141Z,96525.41
2023-03-28T07:58:22.655Z,96525.66
2023-03-28T08:00:49.303Z,96532.44
2023-03-28T08:03:16.760Z,96542.22
2023-03-28T08:05:51.547Z,96536.16
2023-03-28T08:08:19.241Z,96547.94
2023-03-28T08:10:46.171Z,96546.25
2023-03-28T08:13:12.801Z,96556.81
2023-03-28T08:15:39.435Z,96554.53
2023-03-28T08:18:06.064Z,96560.84
2023-03-28T08:20:32.842Z,96563.38
2023-03-28T08:22:59.353Z,96562.66
2023-03-28T08:25:25.838Z,96562.81
2023-03-28T08:27:52.328Z,96568.81
2023-03-28T08:30:18.782Z,96575.50
2023-03-28T08:32:48.313Z,96582.41
2023-03-28T08:35:15.759Z,96584.34
2023-03-28T08:37:42.217Z,96588.84
2023-03-28T08:40:14.041Z,96593.69
2023-03-28T08:42:55.707Z,96600.44
2023-03-28T08:45:24.882Z,96608.09
2023-03-28T08:47:54.362Z,96596.72
2023-03-28T08:50:25.038Z,96598.91
2023-03-28T08:52:51.519Z,96598.16
2023-03-28T08:55:38.536Z,96600.72
2023-03-28T08:58:04.959Z,96601.03
2023-03-28T09:00:32.278Z,96603.78
2023-03-28T09:02:58.895Z,96611.78
2023-03-28T09:05:28.993Z,96608.16
2023-03-28T09:08:00.400Z,96616.47
2023-03-28T09:10:29.661Z,96604.88
2023-03-28T09:12:59.243Z,96606.19
2023-03-28T09:15:28.769Z,96612.88
2023-03-28T09:18:34.069Z,96627.56
2023-03-28T09:21:04.057Z,96635.34
2023-03-28T09:23:39.340Z,96625.50
2023-03-28T09:26:17.416Z,96624.16
2023-03-28T09:28:50.130Z,96635.53
2023-03-28T09:31:17.381Z,96629.59
2023-03-28T09:33:44.054Z,96624.44
2023-03-28T09:36:15.373Z,96642.06
2023-03-28T09:38:44.585Z,96642.38
2023-03-28T09:41:20.108Z,96659.53
2023-03-28T09:43:47.904Z,96638.16
2023-03-28T09:46:32.728Z,96644.38
2023-03-28T09:48:59.415Z,96642.41
2023-03-28T09:51:25.943Z,96658.56
2023-03-28T09:53:52.621Z,96653.50
2023-03-28T09:56:19.100Z,96656.06
2023-03-28T09:58:54.724Z,96654.38
2023-03-28T10:01:25.579Z,96643.13
2023-03-28T10:03:53.168Z,96646.94
2023-03-28T10:06:43.075Z,96660.47
2023-03-28T10:09:15.709Z,96664.66
2023-03-28T10:11:48.915Z,96661.41
2023-03-28T10:14:34.265Z,96658.97
2023-03-28T10:17:13.906Z,96667.31
2023-03-28T10:19:41.663Z,96669.34
2023-03-28T10:22:12.718Z,96675.56
2023-03-28T10:24:39.867Z,96669.53
2023-03-28T10:27:07.426Z,96671.63
2023-03-28T10:29:34.165Z,96664.38
2023-03-28T10:32:00.778Z,96670.41
2023-03-28T10:34:31.733Z,96657.22
2023-03-28T10:36:58.204Z,96668.28
2023-03-28T10:39:25.905Z,96666.75
2023-03-28T10:41:52.982Z,96671.16
2023-03-28T10:44:22.199Z,96664.72
2023-03-28T10:46:48.759Z,96660.53
2023-03-28T10:49:15.674Z,96663.94
2023-03-28T10:51:42.149Z,96654.81
2023-03-28T10:54:27.311Z,96662.00
2023-03-28T10:56:57.662Z,96656.81
2023-03-28T10:59:41.283Z,96665.22
2023-03-28T11:02:34.213Z,96669.28
2023-03-28T11:05:12.494Z,96678.03
2023-03-28T11:07:44.416Z,96682.66
2023-03-28T11:10:10.889Z,96681.53
2023-03-28T11:12:54.285Z,96683.91
2023-03-28T11:15:30.045Z,96670.78
2023-03-28T11:17:59.760Z,96672.81
2023-03-28T11:20:34.585Z,96683.63
2023-03-28T11:23:10.165Z,96680.09
2023-03-28T11:25:36.638Z,96673.22
2023-03-28T11:28:13.856Z,96681.78
2023-03-28T11:30:40.363Z,96673.22
2023-03-28T11:33:09.978Z,96677.88
2023-03-28T11:35:40.956Z,96675.97
2023-03-28T11:38:15.034Z,96683.00
2023-03-28T11:40:58.364Z,96695.63
2023-03-28T11:43:37.156Z,96690.81
2023-03-28T11:46:06.021Z,96686.09
2023-03-28T11:48:47.119Z,96694.59
2023-03-28T11:51:23.733Z,96698.72
2023-03-28T11:53:55.110Z,96693.19
2023-03-28T11:56:40.511Z,96708.13
2023-03-28T11:59:09.058Z,96702.78
2023-03-28T12:01:37.422Z,96714.41
2023-03-28T12:04:10.261Z,96701.63
2023-03-28T12:07:02.194Z,96721.88
2023-03-28T12:09:36.625Z,96716.25
2023-03-28T12:12:10.442Z,96709.69
2023-03-28T12:15:06.357Z,96720.03
2023-03-28T12:17:53.093Z,96702.44
2023-03-28T12:20:38.839Z,96697.09
2023-03-28T12:23:12.624Z,96711.34
2023-03-28T12:25:46.619Z,96711.25
2023-03-28T12:28:24.543Z,96720.47
2023-03-28T12:30:59.093Z,96755.50
2023-03-28T12:33:49.008Z,96747.41
2023-03-28T12:36:20.757Z,96761.53
2023-03-28T12:39:05.975Z,96756.13
2023-03-28T12:41:34.747Z,96773.25
2023-03-28T12:44:03.701Z,96787.41
2023-03-28T12:46:33.283Z,96768.34
2023-03-28T12:49:01.174Z,96792.03
2023-03-28T12:51:37.456Z,96821.75
2023-03-28T12:54:08.404Z,96802.84
2023-03-28T12:56:35.143Z,96794.66
2023-03-28T12:59:01.859Z,96800.41
2023-03-28T13:01:28.362Z,96794.50
2023-03-28T13:04:24.356Z,96798.31
2023-03-28T13:07:04.147Z,96784.88
2023-03-28T13:09:35.664Z,96774.69
2023-03-28T13:12:02.081Z,96770.84
2023-03-28T13:14:34.553Z,96778.41
2023-03-28T13:17:02.139Z,96783.13
2023-03-28T13:19:47.640Z,96785.56
2023-03-28T13:22:32.364Z,96812.31
2023-03-28T13:25:21.266Z,96823.66
2023-03-28T13:27:51.241Z,96817.09
2023-03-28T13:30:18.431Z,96827.56
2023-03-28T13:36:14.337Z,96817.81
2023-03-28T13:38:55.747Z,96828.06
2023-03-28T13:41:40.929Z,96820.28
2023-03-28T13:44:11.724Z,96828.94
2023-03-28T13:47:07.790Z,96833.38
2023-03-28T13:49:51.514Z,96824.63
2023-03-28T13:52:21.998Z,96826.91
2023-03-28T13:54:54.578Z,96831.94
2023-03-28T13:57:22.233Z,96823.44
2023-03-28T13:59:51.776Z,96834.50
2023-03-28T14:02:41.746Z,96826.31
2023-03-28T14:05:13.235Z,96822.09
2023-03-28T14:07:39.722Z,96835.84
2023-03-28T14:10:22.459Z,96851.59
2023-03-28T14:12:50.720Z,96839.31
2023-03-28T14:15:17.913Z,96845.63
2023-03-28T14:17:44.440Z,96843.06
2023-03-28T14:20:15.159Z,96846.72
2023-03-28T14:22:56.980Z,96847.63
2023-03-28T14:25:26.701Z,96836.25
2023-03-28T14:27:54.009Z,96855.06
2023-03-28T14:30:27.616Z,96849.25
2023-03-28T14:33:14.664Z,96855.41
2023-03-28T14:35:46.183Z,96844.75
2023-03-28T14:38:16.903Z,96868.34
2023-03-28T14:40:44.111Z,96866.03
2023-03-28T14:43:12.195Z,96866.00
2023-03-28T14:45:47.983Z,96833.78
2023-03-28T14:48:16.486Z,96872.63
2023-03-28T14:50:42.912Z,96852.63
2023-03-28T14:53:13.010Z,96842.44
2023-03-28T14:55:41.864Z,96858.31
2023-03-28T14:58:09.102Z,96847.81
2023-03-28T15:00:40.613Z,96862.47
2023-03-28T15:03:12.643Z,96865.72
2023-03-28T15:05:39.468Z,96861.81
2023-03-28T15:08:06.317Z,96867.91
2023-03-28T15:10:32.866Z,96864.59
2023-03-28T15:12:59.306Z,96876.50
2023-03-28T15:15:29.873Z,96872.47
2023-03-28T15:17:57.405Z,96877.16
2023-03-28T15:20:25.645Z,96878.16
2023-03-28T15:22:54.595Z,96882.44
2023-03-28T15:25:21.890Z,96891.31
2023-03-28T15:27:50.138Z,96899.53
2023-03-28T15:30:17.359Z,96898.41
2023-03-28T15:32:44.035Z,96905.09
2023-03-28T15:35:27.764Z,96910.97
2023-03-28T15:37:59.624Z,96913.53
2023-03-28T15:40:28.632Z,96916.91
2023-03-28T15:42:55.695Z,96909.78
2023-03-28T15:45:23.564Z,96910.63
2023-03-28T15:47:50.702Z,96927.97
2023-03-28T15:50:21.474Z,96920.78
2023-03-28T15:52:47.919Z,96932.91
2023-03-28T15:55:21.317Z,96926.69
2023-03-28T15:57:47.783Z,96924.16
2023-03-28T16:00:44.156Z,96938.75
2023-03-28T16:03:34.733Z,96938.75
2023-03-28T16:06:10.080Z,96944.84
2023-03-28T16:08:44.644Z,96952.53
2023-03-28T16:11:18.701Z,96951.25
2023-03-28T16:13:45.236Z,96955.44
2023-03-28T16:16:17.496Z,96942.09
2023-03-28T16:18:45.144Z,96948.34
2023-03-28T16:21:11.629Z,96947.44
2023-03-28T16:23:38.108Z,96955.91
2023-03-28T16:26:05.074Z,96947.78
2023-03-28T16:28:31.620Z,96943.78
2023-03-28T16:30:58.092Z,96953.81
2023-03-28T16:33:24.787Z,96951.31
2023-03-28T16:35:52.081Z,96956.03
2023-03-28T16:38:18.587Z,96953.66
2023-03-28T16:40:46.191Z,96968.22
2023-03-28T16:43:15.391Z,96960.75
2023-03-28T16:45:42.478Z,96971.03
2023-03-28T16:48:08.980Z,96994.88
2023-03-28T16:50:35.508Z,96991.22
2023-03-28T16:53:02.403Z,96996.44
2023-03-28T16:55:28.890Z,97011.66
2023-03-28T16:57:55.324Z,97027.75
2023-03-28T17:00:23.005Z,97027.91
2023-03-28T17:02:49.619Z,97046.03
2023-03-28T17:05:16.782Z,97038.31
2023-03-28T17:08:15.434Z,97047.78
2023-03-28T17:10:43.352Z,97039.72
2023-03-28T17:13:10.001Z,97050.03
2023-03-28T17:15:36.679Z,97054.47
2023-03-28T17:18:05.904Z,97060.22
2023-03-28T17:20:32.542Z,97053.69
2023-03-28T17:22:59.059Z,97044.88
2023-03-28T17:25:25.765Z,97046.69
2023-03-28T17:31:26.518Z,97056.53
2023-03-28T17:33:53.231Z,97060.28
2023-03-28T17:36:22.022Z,97060.69
2023-03-28T17:38:49.629Z,97066.25
2023-03-28T17:41:16.879Z,97068.41
2023-03-28T17:43:43.838Z,97061.88
2023-03-28T17:46:10.549Z,97060.53
2023-03-28T17:48:40.241Z,97060.53
2023-03-28T17:51:07.582Z,97058.22
2023-03-28T17:53:34.044Z,97064.31
2023-03-28T17:56:01.365Z,97069.41
2023-03-28T17:58:28.905Z,97075.47
2023-03-28T18:00:55.448Z,97083.13
2023-03-28T18:03:22.650Z,97093.25
2023-03-28T18:05:50.055Z,97095.00
2023-03-28T18:08:16.648Z,97086.53
2023-03-28T18:10:44.700Z,97092.25
2023-03-28T18:13:14.932Z,97094.81
2023-03-28T18:15:42.247Z,97103.44
2023-03-28T18:18:09.278Z,97105.06
2023-03-28T18:20:36.362Z,97115.13
2023-03-28T18:23:02.785Z,97105.91
2023-03-28T18:25:32.356Z,97103.34
2023-03-28T18:27:59.650Z,97113.53
2023-03-28T18:30:27.260Z,97116.00
2023-03-28T18:32:53.855Z,97117.75
2023-03-28T18:35:20.384Z,97124.72
2023-03-28T18:37:46.881Z,97124.78
2023-03-28T18:40:14.553Z,97130.69
2023-03-28T18:42:41.516Z,97130.78
2023-03-28T18:45:08.300Z,97128.00
2023-03-28T18:47:38.535Z,97129.75
2023-03-28T18:50:05.543Z,97130.84
2023-03-28T18:52:32.152Z,97142.25
2023-03-28T18:54:58.951Z,97140.81
2023-03-28T18:57:25.440Z,97135.91
2023-03-28T18:59:55.994Z,97137.78
2023-03-28T19:02:23.027Z,97135.09
2023-03-28T19:04:49.723Z,97135.91
2023-03-28T19:07:16.522Z,97143.78
2023-03-28T19:09:43.874Z,97146.47
2023-03-28T19:12:11.588Z,97143.94
2023-03-28T19:14:38.021Z,97146.47
2023-03-28T19:17:04.733Z,97147.31
2023-03-28T19:19:37.315Z,97145.66
2023-03-28T19:22:04.724Z,97141.44
2023-03-28T19:24:31.207Z,97149.16
2023-03-28T19:26:59.332Z,97145.09
2023-03-28T19:29:26.467Z,97140.97
2023-03-28T19:31:53.044Z,97154.41
2023-03-28T19:34:19.955Z,97141.03
2023-03-28T19:36:47.458Z,97146.25
2023-03-28T19:39:14.042Z,97140.50
2023-03-28T19:41:40.560Z,97151.63
2023-03-28T19:44:07.129Z,97149.25
2023-03-28T19:46:36.361Z,97146.75
2023-03-28T19:49:06.312Z,97158.47
2023-03-28T19:51:33.148Z,97151.84
2023-03-28T19:53:59.782Z,97149.38
2023-03-28T19:56:27.271Z,97140.72
2023-03-28T19:58:53.756Z,97138.25
2023-03-28T20:01:20.554Z,97150.16
2023-03-28T20:03:49.531Z,97151.91
2023-03-28T20:06:17.075Z,97151.16
2023-03-28T20:08:43.631Z,97141.94
2023-03-28T20:11:11.665Z,97150.63
2023-03-28T20:13:38.481Z,97144.91
2023-03-28T20:16:05.743Z,97139.91
2023-03-28T20:18:32.676Z,97140.72
2023-03-28T20:21:03.510Z,97140.84
2023-03-28T20:23:30.552Z,97142.63
2023-03-28T20:25:59.081Z,97147.72
2023-03-28T20:28:25.606Z,97146.19
2023-03-28T20:30:52.654Z,97145.56
2023-03-28T20:33:20.625Z,97150.81
2023-03-28T20:35:53.845Z,97149.28
2023-03-28T20:38:21.176Z,97150.19
2023-03-28T20:40:47.825Z,97158.72
2023-03-28T20:43:19.965Z,97152.09
2023-03-28T20:45:53.671Z,97153.06
2023-03-28T20:48:35.165Z,97156.72
2023-03-28T20:51:05.885Z,97160.34
2023-03-28T20:53:33.220Z,97153.00
2023-03-28T20:56:01.873Z,97165.06
2023-03-28T20:58:29.212Z,97165.16
2023-03-28T21:00:57.387Z,97167.78
2023-03-28T21:03:23.972Z,97172.94
2023-03-28T21:05:50.724Z,97167.97
2023-03-28T21:08:19.733Z,97171.47
2023-03-28T21:10:53.531Z,97172.38
2023-03-28T21:13:21.789Z,97176.69
2023-03-28T21:15:52.627Z,97170.84
2023-03-28T21:18:19.146Z,97171.22
2023-03-28T21:20:45.904Z,97170.72
2023-03-28T21:23:13.280Z,97184.31
2023-03-28T21:25:43.380Z,97175.22
2023-03-28T21:28:11.074Z,97179.66
2023-03-28T21:30:37.643Z,97168.94
2023-03-28T21:33:04.170Z,97180.97
2023-03-28T21:35:30.741Z,97184.50
2023-03-28T21:37:57.215Z,97185.41
2023-03-28T21:40:23.785Z,97179.56
2023-03-28T21:42:50.436Z,97182.94
2023-03-28T21:45:16.987Z,97175.41
2023-03-28T21:47:44.903Z,97171.41
2023-03-28T21:50:13.723Z,97166.38
2023-03-28T21:52:41.384Z,97165.63
2023-03-28T21:55:09.314Z,97163.25
2023-03-28T21:57:36.802Z,97170.13
2023-03-28T22:00:14.859Z,97164.25
2023-03-28T22:02:42.057Z,97169.34
2023-03-28T22:05:18.551Z,97160.78
2023-03-28T22:07:53.401Z,97160.78
2023-03-28T22:10:20.085Z,97169.03
2023-03-28T22:12:46.809Z,97161.41
2023-03-28T22:15:16.422Z,97170.72
2023-03-28T22:17:43.028Z,97169.81
2023-03-28T22:20:11.711Z,97171.56
2023-03-28T22:22:44.940Z,97176.72
2023-03-28T22:25:12.628Z,97169.09
2023-03-28T22:27:39.370Z,97173.03
2023-03-28T22:30:06.195Z,97167.22
2023-03-28T22:32:32.730Z,97165.06
2023-03-28T22:34:59.410Z,97164.06
2023-03-28T22:37:25.999Z,97160.56
2023-03-28T22:39:52.427Z,97166.41
2023-03-28T22:42:18.857Z,97166.53
2023-03-28T22:44:46.009Z,97161.47
2023-03-28T22:47:12.674Z,97159.03
2023-03-28T22:49:39.797Z,97172.78
2023-03-28T22:52:06.436Z,97173.66
2023-03-28T22:54:33.308Z,97183.94
2023-03-28T22:56:59.987Z,97173.19
2023-03-28T22:59:27.268Z,97183.69
2023-03-28T23:01:55.357Z,97185.81
2023-03-28T23:04:23.562Z,97181.03
2023-03-28T23:06:50.497Z,97182.09
2023-03-28T23:09:17.248Z,97176.34
2023-03-28T23:11:43.922Z,97185.09
2023-03-28T23:14:10.553Z,97178.59
2023-03-28T23:16:38.506Z,97179.53
2023-03-28T23:19:06.341Z,97185.56
2023-03-28T23:21:33.491Z,97178.03
2023-03-28T23:24:00.036Z,97176.38
2023-03-28T23:26:26.483Z,97176.34
2023-03-28T23:28:52.946Z,97183.00
2023-03-28T23:31:19.896Z,97187.13
2023-03-28T23:33:46.581Z,97194.72
2023-03-28T23:36:20.961Z,97176.13
2023-03-28T23:38:51.102Z,97178.59
2023-03-28T23:41:17.754Z,97170.16
2023-03-28T23:43:44.511Z,97161.72
2023-03-28T23:46:11.133Z,97154.09
2023-03-28T23:48:37.798Z,97163.44
2023-03-28T23:51:04.572Z,97162.63
2023-03-28T23:53:31.123Z,97164.41
2023-03-28T23:55:57.561Z,97158.63
2023-03-28T23:58:24.059Z,97147.88
